createdAt,value
2023-02-11T00:00:19.483Z,102320.47
2023-02-11T00:03:42.262Z,102316.41
2023-02-11T00:06:45.276Z,102305.78
2023-02-11T00:09:48.109Z,102313.84
2023-02-11T00:12:50.967Z,102296.56
2023-02-11T00:15:55.065Z,102302.16
2023-02-11T00:19:03.001Z,102287.81
2023-02-11T00:22:06.202Z,102294.13
2023-02-11T00:25:09.123Z,102288.81
2023-02-11T00:28:12.124Z,102286.50
2023-02-11T00:31:18.089Z,102283.50
2023-02-11T00:34:21.090Z,102289.16
2023-02-11T00:37:24.075Z,102287.75
2023-02-11T00:40:27.589Z,102285.19
2023-02-11T00:43:30.391Z,102280.81
2023-02-11T00:46:33.274Z,102280.47
2023-02-11T00:49:37.072Z,102288.75
2023-02-11T00:52:39.879Z,102293.22
2023-02-11T00:55:42.702Z,102282.78
2023-02-11T00:58:45.650Z,102273.56
2023-02-11T01:01:48.570Z,102273.00
2023-02-11T01:04:51.513Z,102273.44
2023-02-11T01:07:54.474Z,102264.72
2023-02-11T01:11:00.132Z,102250.78
2023-02-11T01:14:03.659Z,102248.56
2023-02-11T01:17:06.536Z,102245.50
2023-02-11T01:20:15.278Z,102243.09
2023-02-11T01:23:18.549Z,102238.12
2023-02-11T01:26:21.501Z,102228.91
2023-02-11T01:29:25.900Z,102222.00
2023-02-11T01:32:30.342Z,102225.44
2023-02-11T01:35:33.249Z,102221.31
2023-02-11T01:38:36.300Z,102216.75
2023-02-11T01:41:39.243Z,102216.75
2023-02-11T01:44:42.703Z,102221.31
2023-02-11T01:47:45.545Z,102211.88
2023-02-11T01:50:52.735Z,102226.06
2023-02-11T01:54:16.428Z,102227.41
2023-02-11T01:57:27.305Z,102218.03
2023-02-11T02:00:36.223Z,102212.94
2023-02-11T02:03:43.863Z,102214.06
2023-02-11T02:06:56.003Z,102217.66
2023-02-11T02:10:07.119Z,102212.84
2023-02-11T02:13:12.118Z,102215.03
2023-02-11T02:16:19.776Z,102212.22
2023-02-11T02:19:40.068Z,102216.59
2023-02-11T02:23:22.289Z,102224.41
2023-02-11T02:26:52.756Z,102222.06
2023-02-11T02:30:20.785Z,102224.50
2023-02-11T02:33:35.502Z,102215.25
2023-02-11T02:36:47.456Z,102215.97
2023-02-11T02:39:50.655Z,102210.56
2023-02-11T02:42:55.738Z,102206.09
2023-02-11T02:46:11.664Z,102204.31
2023-02-11T02:49:16.188Z,102204.31
2023-02-11T02:52:34.236Z,102209.53
2023-02-11T02:55:55.249Z,102212.50
2023-02-11T02:59:24.994Z,102202.22
2023-02-11T03:02:42.195Z,102203.91
2023-02-11T03:05:54.338Z,102188.41
2023-02-11T03:09:22.450Z,102207.44
2023-02-11T03:12:30.052Z,102195.69
2023-02-11T03:15:41.908Z,102194.88
2023-02-11T03:18:50.509Z,102191.06
2023-02-11T03:21:55.002Z,102196.75
2023-02-11T03:24:57.858Z,102182.84
2023-02-11T03:28:13.942Z,102175.41
2023-02-11T03:31:37.802Z,102175.41
2023-02-11T03:35:07.830Z,102175.66
2023-02-11T03:38:21.902Z,102177.16
2023-02-11T03:41:25.664Z,102169.78
2023-02-11T03:44:34.240Z,102164.81
2023-02-11T03:47:40.371Z,102167.56
2023-02-11T03:50:45.900Z,102148.03
2023-02-11T03:53:53.027Z,102149.66
2023-02-11T03:56:59.706Z,102143.78
2023-02-11T04:00:04.449Z,102136.25
2023-02-11T04:03:14.352Z,102131.47
2023-02-11T04:06:18.761Z,102136.44
2023-02-11T04:09:21.573Z,102123.44
2023-02-11T04:12:24.793Z,102123.28
2023-02-11T04:15:27.312Z,102117.25
2023-02-11T04:18:30.465Z,102106.47
2023-02-11T04:21:33.043Z,102109.38
2023-02-11T04:24:36.403Z,102102.75
2023-02-11T04:27:39.491Z,102109.38
2023-02-11T04:30:42.657Z,102103.91
2023-02-11T04:33:45.299Z,102107.63
2023-02-11T04:36:48.461Z,102105.63
2023-02-11T04:39:51.079Z,102116.84
2023-02-11T04:42:54.219Z,102105.00
2023-02-11T04:45:58.851Z,102107.56
2023-02-11T04:49:02.229Z,102104.84
2023-02-11T04:52:05.162Z,102105.41
2023-02-11T04:55:08.970Z,102099.19
2023-02-11T04:58:11.550Z,102103.81
2023-02-11T05:01:16.021Z,102101.69
2023-02-11T05:04:19.145Z,102105.16
2023-02-11T05:07:22.502Z,102103.91
2023-02-11T05:10:25.264Z,102108.31
2023-02-11T05:13:29.309Z,102113.31
2023-02-11T05:16:32.632Z,102112.25
2023-02-11T05:19:35.786Z,102117.63
2023-02-11T05:22:38.310Z,102120.03
2023-02-11T05:25:41.501Z,102110.34
2023-02-11T05:28:45.241Z,102109.78
2023-02-11T05:31:48.487Z,102115.53
2023-02-11T05:34:51.050Z,102101.66
2023-02-11T05:37:54.515Z,102095.28
2023-02-11T05:40:57.449Z,102108.84
2023-02-11T05:44:00.545Z,102093.88
2023-02-11T05:47:03.153Z,102092.72
2023-02-11T05:50:06.630Z,102091.56
2023-02-11T05:53:09.284Z,102082.09
2023-02-11T05:56:12.617Z,102093.16
2023-02-11T05:59:15.369Z,102088.84
2023-02-11T06:02:18.593Z,102098.75
2023-02-11T06:05:21.837Z,102100.25
2023-02-11T06:08:24.871Z,102104.44
2023-02-11T06:11:27.847Z,102104.78
2023-02-11T06:14:33.715Z,102100.56
2023-02-11T06:17:37.444Z,102104.59
2023-02-11T06:20:41.563Z,102096.53
2023-02-11T06:23:44.746Z,102104.22
2023-02-11T06:26:47.636Z,102087.34
2023-02-11T06:29:52.472Z,102091.31
2023-02-11T06:32:55.493Z,102074.06
2023-02-11T06:35:58.431Z,102083.97
2023-02-11T06:39:01.330Z,102086.31
2023-02-11T06:42:07.678Z,102087.44
2023-02-11T06:45:13.032Z,102093.41
2023-02-11T06:48:17.053Z,102087.69
2023-02-11T06:51:20.046Z,102084.28
2023-02-11T06:54:23.047Z,102075.66
2023-02-11T06:57:25.890Z,102075.75
2023-02-11T07:00:29.687Z,102078.53
2023-02-11T07:03:37.730Z,102074.94
2023-02-11T07:06:41.125Z,102069.97
2023-02-11T07:09:44.121Z,102072.31
2023-02-11T07:12:47.031Z,102058.28
2023-02-11T07:15:50.526Z,102065.56
2023-02-11T07:18:54.275Z,102064.88
2023-02-11T07:21:57.719Z,102056.87
2023-02-11T07:25:01.814Z,102061.59
2023-02-11T07:28:04.973Z,102070.75
2023-02-11T07:31:13.755Z,102071.00
2023-02-11T07:34:18.010Z,102072.69
2023-02-11T07:37:20.897Z,102060.03
2023-02-11T07:40:23.693Z,102053.50
2023-02-11T07:43:26.940Z,102045.34
2023-02-11T07:46:29.875Z,102053.06
2023-02-11T07:49:32.975Z,102044.47
2023-02-11T07:52:36.102Z,102042.88
2023-02-11T07:55:38.993Z,102033.84
2023-02-11T07:58:43.204Z,102032.50
2023-02-11T08:01:46.344Z,102035.28
2023-02-11T08:04:50.113Z,102026.53
2023-02-11T08:07:54.197Z,102021.38
2023-02-11T08:10:57.606Z,102026.03
2023-02-11T08:14:00.529Z,102023.75
2023-02-11T08:17:04.238Z,102032.63
2023-02-11T08:20:07.744Z,102030.69
2023-02-11T08:23:11.025Z,102037.28
2023-02-11T08:26:22.292Z,102030.78
2023-02-11T08:29:25.583Z,102034.31
2023-02-11T08:32:28.414Z,102025.22
2023-02-11T08:35:33.131Z,102033.16
2023-02-11T08:38:35.747Z,102031.34
2023-02-11T08:41:39.004Z,102038.22
2023-02-11T08:44:42.355Z,102028.41
2023-02-11T08:47:46.480Z,102024.56
2023-02-11T08:50:49.477Z,102022.03
2023-02-11T08:53:52.618Z,102023.78
2023-02-11T08:56:55.215Z,102017.78
2023-02-11T08:59:58.492Z,102024.91
2023-02-11T09:03:01.544Z,102020.97
2023-02-11T09:06:06.304Z,102011.66
2023-02-11T09:09:13.566Z,102016.94
2023-02-11T09:12:16.862Z,101997.19
2023-02-11T09:15:19.585Z,101990.75
2023-02-11T09:18:22.741Z,101994.78
2023-02-11T09:21:25.393Z,101984.97
2023-02-11T09:24:28.539Z,101983.75
2023-02-11T09:27:31.260Z,101971.81
2023-02-11T09:30:36.608Z,101975.97
2023-02-11T09:33:42.197Z,101957.28
2023-02-11T09:36:45.444Z,101955.37
2023-02-11T09:39:48.157Z,101952.09
2023-02-11T09:43:12.056Z,101957.81
2023-02-11T09:46:17.194Z,101954.03
2023-02-11T09:49:26.502Z,101941.34
2023-02-11T09:53:18.676Z,101949.13
2023-02-11T09:56:23.633Z,101937.84
2023-02-11T09:59:26.263Z,101938.94
2023-02-11T10:02:58.313Z,101939.56
2023-02-11T10:06:20.150Z,101942.72
2023-02-11T10:09:47.956Z,101943.28
2023-02-11T10:13:03.223Z,101950.84
2023-02-11T10:16:24.304Z,101945.53
2023-02-11T10:19:38.876Z,101941.94
2023-02-11T10:22:46.529Z,101935.44
2023-02-11T10:25:54.526Z,101927.59
2023-02-11T10:29:02.336Z,101926.00
2023-02-11T10:32:19.452Z,101912.69
2023-02-11T10:35:23.848Z,101906.28
2023-02-11T10:38:27.825Z,101915.25
2023-02-11T10:41:38.041Z,101904.84
2023-02-11T10:45:17.802Z,101904.72
2023-02-11T10:48:39.422Z,101905.09
2023-02-11T10:51:42.497Z,101895.41
2023-02-11T10:55:00.328Z,101885.62
2023-02-11T10:58:04.731Z,101885.31
2023-02-11T11:01:23.569Z,101886.56
2023-02-11T11:04:30.671Z,101875.62
2023-02-11T11:07:36.729Z,101878.00
2023-02-11T11:11:04.671Z,101861.63
2023-02-11T11:14:19.610Z,101856.84
2023-02-11T11:17:22.684Z,101858.38
2023-02-11T11:20:32.289Z,101844.16
2023-02-11T11:23:36.928Z,101850.13
2023-02-11T11:26:45.661Z,101839.72
2023-02-11T11:29:51.591Z,101836.91
2023-02-11T11:32:54.914Z,101827.53
2023-02-11T11:36:10.303Z,101820.28
2023-02-11T11:39:15.851Z,101830.88
2023-02-11T11:42:27.690Z,101819.28
2023-02-11T11:45:30.600Z,101808.41
2023-02-11T11:48:49.825Z,101807.50
2023-02-11T11:52:19.544Z,101805.69
2023-02-11T11:55:32.110Z,101801.19
2023-02-11T11:58:35.259Z,101803.59
2023-02-11T12:01:49.071Z,101808.09
2023-02-11T12:05:23.203Z,101800.84
2023-02-11T12:08:54.322Z,101798.16
2023-02-11T12:12:13.226Z,101778.50
2023-02-11T12:15:37.479Z,101755.66
2023-02-11T12:19:08.172Z,101763.31
2023-02-11T12:22:11.021Z,101744.59
2023-02-11T12:25:27.875Z,101731.97
2023-02-11T12:28:45.388Z,101722.88
2023-02-11T12:32:21.886Z,101722.81
2023-02-11T12:35:43.323Z,101710.59
2023-02-11T12:38:54.132Z,101714.56
2023-02-11T12:42:33.700Z,101708.06
2023-02-11T12:46:02.639Z,101702.28
2023-02-11T12:49:37.877Z,101694.87
2023-02-11T12:52:55.944Z,101694.84
2023-02-11T12:56:05.247Z,101700.84
2023-02-11T12:59:20.777Z,101686.78
2023-02-11T13:02:56.082Z,101679.75
2023-02-11T13:06:05.739Z,101681.72
2023-02-11T13:09:18.918Z,101687.44
2023-02-11T13:12:41.607Z,101681.94
2023-02-11T13:16:07.761Z,101663.91
2023-02-11T13:19:13.733Z,101662.16
2023-02-11T13:22:25.053Z,101654.56
2023-02-11T13:25:39.514Z,101645.53
2023-02-11T13:28:45.375Z,101663.53
2023-02-11T13:32:10.875Z,101639.34
2023-02-11T13:35:54.609Z,101634.81
2023-02-11T13:39:01.740Z,101643.47
2023-02-11T13:42:05.399Z,101646.19
2023-02-11T13:45:18.748Z,101640.84
2023-02-11T13:48:28.000Z,101640.34
2023-02-11T13:51:42.939Z,101648.69
2023-02-11T13:54:52.943Z,101637.22
2023-02-11T13:58:08.382Z,101647.28
2023-02-11T14:01:10.956Z,101659.72
2023-02-11T14:04:43.492Z,101654.56
2023-02-11T14:08:29.909Z,101669.62
2023-02-11T14:11:33.295Z,101653.09
2023-02-11T14:15:15.863Z,101645.41
2023-02-11T14:18:39.547Z,101635.00
2023-02-11T14:21:44.592Z,101638.41
2023-02-11T14:25:15.121Z,101636.72
2023-02-11T14:28:34.480Z,101644.81
2023-02-11T14:32:11.225Z,101654.50
2023-02-11T14:35:26.919Z,101660.00
2023-02-11T14:38:43.786Z,101659.50
2023-02-11T14:41:51.221Z,101666.00
2023-02-11T14:44:59.146Z,101663.41
2023-02-11T14:48:26.626Z,101666.41
2023-02-11T14:51:39.829Z,101663.03
2023-02-11T14:54:44.678Z,101662.09
2023-02-11T14:57:50.722Z,101646.31
2023-02-11T15:01:02.394Z,101646.22
2023-02-11T15:04:21.679Z,101641.28
2023-02-11T15:07:24.271Z,101633.81
2023-02-11T15:10:41.590Z,101627.19
2023-02-11T15:13:47.602Z,101619.28
2023-02-11T15:16:55.722Z,101619.94
2023-02-11T15:20:01.954Z,101617.94
2023-02-11T15:23:09.377Z,101611.41
2023-02-11T15:26:21.399Z,101605.59
2023-02-11T15:29:26.772Z,101614.16
2023-02-11T15:32:29.403Z,101616.34
2023-02-11T15:35:36.589Z,101610.91
2023-02-11T15:38:40.829Z,101616.87
2023-02-11T15:41:44.646Z,101599.06
2023-02-11T15:44:54.337Z,101593.72
2023-02-11T15:48:02.070Z,101596.00
2023-02-11T15:51:30.128Z,101585.00
2023-02-11T15:54:33.379Z,101585.34
2023-02-11T15:57:36.869Z,101593.19
2023-02-11T16:00:48.197Z,101592.69
2023-02-11T16:03:53.519Z,101583.03
2023-02-11T16:06:57.455Z,101579.72
2023-02-11T16:10:00.324Z,101581.63
2023-02-11T16:13:05.989Z,101563.75
2023-02-11T16:16:19.754Z,101565.41
2023-02-11T16:19:25.714Z,101567.25
2023-02-11T16:22:35.341Z,101576.84
2023-02-11T16:25:42.184Z,101562.06
2023-02-11T16:28:45.531Z,101559.75
2023-02-11T16:31:50.325Z,101561.09
2023-02-11T16:34:55.233Z,101555.63
2023-02-11T16:37:58.451Z,101568.00
2023-02-11T16:41:01.318Z,101571.66
2023-02-11T16:44:04.346Z,101571.91
2023-02-11T16:47:19.648Z,101567.44
2023-02-11T16:50:25.016Z,101560.84
2023-02-11T16:53:27.971Z,101562.31
2023-02-11T16:56:30.890Z,101551.31
2023-02-11T16:59:35.261Z,101558.75
2023-02-11T17:02:38.997Z,101571.59
2023-02-11T17:05:54.681Z,101564.38
2023-02-11T17:08:58.963Z,101575.03
2023-02-11T17:12:01.951Z,101580.62
2023-02-11T17:15:07.445Z,101576.50
2023-02-11T17:18:14.269Z,101572.22
2023-02-11T17:21:17.524Z,101573.88
2023-02-11T17:24:21.901Z,101565.53
2023-02-11T17:27:25.048Z,101582.69
2023-02-11T17:30:27.937Z,101585.41
2023-02-11T17:33:30.792Z,101590.66
2023-02-11T17:36:33.703Z,101599.87
2023-02-11T17:39:38.083Z,101583.22
2023-02-11T17:42:40.918Z,101587.50
2023-02-11T17:45:43.825Z,101586.63
2023-02-11T17:48:47.110Z,101579.75
2023-02-11T17:51:50.064Z,101585.38
2023-02-11T17:54:53.197Z,101585.28
2023-02-11T17:58:07.881Z,101573.22
2023-02-11T18:01:20.895Z,101568.16
2023-02-11T18:04:24.968Z,101558.34
2023-02-11T18:07:27.711Z,101554.94
2023-02-11T18:10:31.283Z,101557.31
2023-02-11T18:13:33.813Z,101549.22
2023-02-11T18:16:39.150Z,101550.59
2023-02-11T18:19:41.808Z,101548.41
2023-02-11T18:22:45.107Z,101551.13
2023-02-11T18:25:47.681Z,101540.06
2023-02-11T18:28:52.584Z,101536.00
2023-02-11T18:31:56.912Z,101539.94
2023-02-11T18:35:00.086Z,101535.91
2023-02-11T18:38:02.596Z,101540.88
2023-02-11T18:41:09.662Z,101535.81
2023-02-11T18:44:14.297Z,101535.69
2023-02-11T18:47:17.452Z,101538.06
2023-02-11T18:50:22.070Z,101533.09
2023-02-11T18:53:25.236Z,101548.31
2023-02-11T18:56:27.913Z,101546.19
2023-02-11T18:59:31.242Z,101537.84
2023-02-11T19:02:33.878Z,101537.59
2023-02-11T19:05:48.591Z,101540.41
2023-02-11T19:08:52.689Z,101551.78
2023-02-11T19:11:57.222Z,101550.12
2023-02-11T19:15:00.870Z,101541.47
2023-02-11T19:18:04.148Z,101545.19
2023-02-11T19:21:09.157Z,101544.22
2023-02-11T19:24:15.586Z,101548.97
2023-02-11T19:27:18.207Z,101542.91
2023-02-11T19:30:21.675Z,101561.06
2023-02-11T19:33:24.194Z,101549.97
2023-02-11T19:36:27.711Z,101553.34
2023-02-11T19:39:31.418Z,101550.22
2023-02-11T19:42:34.747Z,101536.25
2023-02-11T19:45:37.794Z,101548.31
2023-02-11T19:48:48.667Z,101544.22
2023-02-11T19:51:55.261Z,101557.12
2023-02-11T19:55:00.542Z,101548.66
2023-02-11T19:58:03.138Z,101556.06
2023-02-11T20:01:11.073Z,101553.81
2023-02-11T20:04:15.950Z,101549.09
2023-02-11T20:07:18.800Z,101551.81
2023-02-11T20:10:23.106Z,101547.19
2023-02-11T20:13:25.944Z,101538.75
2023-02-11T20:16:46.439Z,101542.81
2023-02-11T20:19:50.802Z,101544.47
2023-02-11T20:22:53.632Z,101533.09
2023-02-11T20:25:56.500Z,101530.72
2023-02-11T20:29:03.722Z,101530.03
2023-02-11T20:32:07.470Z,101535.47
2023-02-11T20:35:10.437Z,101542.44
2023-02-11T20:38:14.045Z,101539.06
2023-02-11T20:41:25.334Z,101531.97
2023-02-11T20:44:28.178Z,101534.09
2023-02-11T20:47:31.037Z,101531.97
2023-02-11T20:50:34.592Z,101519.44
2023-02-11T20:53:39.967Z,101515.50
2023-02-11T20:56:45.522Z,101521.37
2023-02-11T20:59:49.622Z,101524.84
2023-02-11T21:02:53.463Z,101531.97
2023-02-11T21:05:58.621Z,101536.56
2023-02-11T21:09:02.443Z,101525.78
2023-02-11T21:12:06.107Z,101509.22
2023-02-11T21:15:10.506Z,101518.78
2023-02-11T21:18:13.620Z,101515.84
2023-02-11T21:21:17.551Z,101520.38
2023-02-11T21:24:20.441Z,101523.31
2023-02-11T21:27:23.999Z,101527.12
2023-02-11T21:30:26.862Z,101525.91
2023-02-11T21:33:32.163Z,101530.03
2023-02-11T21:36:35.156Z,101512.94
2023-02-11T21:39:38.151Z,101531.97
2023-02-11T21:42:41.251Z,101511.91
2023-02-11T21:45:45.562Z,101521.16
2023-02-11T21:48:48.930Z,101530.75
2023-02-11T21:51:51.772Z,101511.00
2023-02-11T21:54:54.670Z,101503.59
2023-02-11T21:57:57.493Z,101505.28
2023-02-11T22:01:00.475Z,101494.91
2023-02-11T22:04:04.118Z,101507.87
2023-02-11T22:07:06.682Z,101505.97
2023-02-11T22:10:10.470Z,101494.81
2023-02-11T22:13:13.123Z,101520.63
2023-02-11T22:16:17.098Z,101524.53
2023-02-11T22:19:19.946Z,101521.63
2023-02-11T22:22:23.866Z,101511.37
2023-02-11T22:25:26.448Z,101513.16
2023-02-11T22:28:30.116Z,101526.00
2023-02-11T22:31:34.537Z,101525.09
2023-02-11T22:34:38.023Z,101523.50
2023-02-11T22:37:40.609Z,101528.81
2023-02-11T22:40:44.081Z,101540.94
2023-02-11T22:43:47.117Z,101543.59
2023-02-11T22:46:51.497Z,101547.50
2023-02-11T22:49:54.218Z,101540.94
2023-02-11T22:52:57.435Z,101535.41
2023-02-11T22:56:08.730Z,101548.56
2023-02-11T22:59:14.660Z,101544.50
2023-02-11T23:02:17.647Z,101541.53
2023-02-11T23:05:21.225Z,101553.09
2023-02-11T23:08:24.146Z,101548.00
2023-02-11T23:11:28.672Z,101558.78
2023-02-11T23:14:31.202Z,101559.44
2023-02-11T23:17:34.260Z,101566.94
2023-02-11T23:20:42.026Z,101560.66
2023-02-11T23:23:45.871Z,101545.34
2023-02-11T23:26:48.435Z,101546.22
2023-02-11T23:29:51.630Z,101540.25
2023-02-11T23:32:54.317Z,101545.75
2023-02-11T23:35:57.539Z,101539.34
2023-02-11T23:39:00.111Z,101545.19
2023-02-11T23:42:03.382Z,101535.97
2023-02-11T23:45:06.841Z,101525.63
2023-02-11T23:48:10.010Z,101531.81
2023-02-11T23:51:12.707Z,101529.69
2023-02-11T23:54:15.868Z,101531.81
2023-02-11T23:57:18.498Z,101526.50
